createdAt,value
2023-03-06T00:00:25.362Z,9.13
2023-03-06T00:02:58.700Z,8.50
2023-03-06T00:05:27.534Z,8.43
2023-03-06T00:07:55.898Z,9.00
2023-03-06T00:10:27.034Z,8.93
2023-03-06T00:13:08.447Z,9.03
2023-03-06T00:15:36.930Z,9.07
2023-03-06T00:18:06.125Z,9.23
2023-03-06T00:20:35.530Z,8.87
2023-03-06T00:23:04.027Z,8.57
2023-03-06T00:25:32.573Z,8.47
2023-03-06T00:28:00.862Z,8.23
2023-03-06T00:30:30.598Z,8.17
2023-03-06T00:32:58.927Z,8.63
2023-03-06T00:35:27.234Z,7.83
2023-03-06T00:37:55.601Z,9.00
2023-03-06T00:40:24.023Z,8.13
2023-03-06T00:42:52.340Z,8.07
2023-03-06T00:45:20.873Z,8.97
2023-03-06T00:47:50.543Z,7.70
2023-03-06T00:50:18.950Z,8.10
2023-03-06T00:52:47.368Z,8.50
2023-03-06T00:55:15.769Z,8.80
2023-03-06T00:57:44.107Z,9.00
2023-03-06T01:00:14.255Z,9.70
2023-03-06T01:02:42.873Z,8.70
2023-03-06T01:05:14.812Z,9.43
2023-03-06T01:07:43.223Z,9.53
2023-03-06T01:10:13.126Z,8.83
2023-03-06T01:12:51.398Z,9.03
2023-03-06T01:15:19.867Z,9.37
2023-03-06T01:17:57.002Z,9.20
2023-03-06T01:20:26.766Z,10.10
2023-03-06T01:22:56.628Z,9.77
2023-03-06T01:25:25.862Z,9.37
2023-03-06T01:27:58.700Z,9.37
2023-03-06T01:30:27.051Z,8.47
2023-03-06T01:32:55.404Z,9.43
2023-03-06T01:35:23.998Z,9.20
2023-03-06T01:37:54.406Z,9.43
2023-03-06T01:40:22.928Z,8.20
2023-03-06T01:42:51.911Z,7.67
2023-03-06T01:45:57.398Z,8.23
2023-03-06T01:48:26.369Z,8.80
2023-03-06T01:50:55.414Z,9.13
2023-03-06T01:53:26.407Z,8.53
2023-03-06T01:55:55.182Z,9.37
2023-03-06T01:58:23.806Z,9.37
2023-03-06T02:00:52.182Z,8.83
2023-03-06T02:03:24.651Z,9.90
2023-03-06T02:05:53.033Z,9.43
2023-03-06T02:08:24.274Z,9.60
2023-03-06T02:11:03.336Z,9.67
2023-03-06T02:13:32.139Z,10.07
2023-03-06T02:16:00.516Z,10.20
2023-03-06T02:18:29.655Z,10.37
2023-03-06T02:21:00.171Z,9.97
2023-03-06T02:23:34.594Z,9.77
2023-03-06T02:26:05.785Z,10.03
2023-03-06T02:28:34.259Z,10.33
2023-03-06T02:31:02.764Z,9.70
2023-03-06T02:33:31.276Z,10.47
2023-03-06T02:36:02.369Z,10.20
2023-03-06T02:38:35.635Z,10.90
2023-03-06T02:41:08.179Z,10.93
2023-03-06T02:43:40.750Z,9.53
2023-03-06T02:46:09.280Z,10.50
2023-03-06T02:48:37.626Z,10.33
2023-03-06T02:51:06.165Z,9.80
2023-03-06T02:53:34.598Z,10.37
2023-03-06T02:56:03.236Z,9.77
2023-03-06T02:58:32.915Z,10.27
2023-03-06T03:01:01.269Z,10.60
2023-03-06T03:03:29.726Z,8.47
2023-03-06T03:05:58.057Z,9.60
2023-03-06T03:08:26.424Z,10.63
2023-03-06T03:10:56.246Z,9.90
2023-03-06T03:13:24.785Z,9.47
2023-03-06T03:16:01.903Z,9.93
2023-03-06T03:18:30.648Z,9.40
2023-03-06T03:20:59.179Z,9.97
2023-03-06T03:23:28.270Z,9.13
2023-03-06T03:25:56.622Z,9.47
2023-03-06T03:28:24.942Z,10.23
2023-03-06T03:30:55.166Z,9.93
2023-03-06T03:33:24.812Z,10.57
2023-03-06T03:35:58.057Z,9.87
2023-03-06T03:38:26.556Z,9.90
2023-03-06T03:40:54.854Z,9.93
2023-03-06T03:43:23.647Z,10.60
2023-03-06T03:45:53.789Z,11.00
2023-03-06T03:48:22.446Z,10.33
2023-03-06T03:50:52.101Z,11.23
2023-03-06T03:53:20.391Z,10.70
2023-03-06T03:55:49.794Z,9.40
2023-03-06T03:58:18.124Z,10.13
2023-03-06T04:00:47.188Z,10.30
2023-03-06T04:03:15.501Z,10.60
2023-03-06T04:05:43.874Z,10.30
2023-03-06T04:08:13.578Z,9.33
2023-03-06T04:10:41.890Z,11.27
2023-03-06T04:13:10.329Z,9.27
2023-03-06T04:15:38.609Z,9.90
2023-03-06T04:18:07.013Z,11.00
2023-03-06T04:20:35.274Z,11.37
2023-03-06T04:23:03.551Z,11.23
2023-03-06T04:25:33.273Z,10.87
2023-03-06T04:28:01.627Z,11.30
2023-03-06T04:30:29.888Z,11.93
2023-03-06T04:32:58.517Z,11.50
2023-03-06T04:35:27.325Z,11.20
2023-03-06T04:37:55.761Z,11.40
2023-03-06T04:40:28.626Z,10.83
2023-03-06T04:43:00.042Z,11.67
2023-03-06T04:45:29.891Z,10.77
2023-03-06T04:47:58.325Z,11.03
2023-03-06T04:50:28.342Z,11.67
2023-03-06T04:52:56.706Z,10.80
2023-03-06T04:55:25.060Z,11.57
2023-03-06T04:57:53.439Z,10.27
2023-03-06T05:00:29.415Z,10.27
2023-03-06T05:03:07.680Z,10.03
2023-03-06T05:05:36.180Z,10.13
2023-03-06T05:08:04.797Z,10.27
2023-03-06T05:10:33.151Z,10.00
2023-03-06T05:13:01.508Z,10.47
2023-03-06T05:15:31.320Z,11.07
2023-03-06T05:18:01.669Z,9.93
2023-03-06T05:20:30.056Z,9.73
2023-03-06T05:22:58.861Z,9.67
2023-03-06T05:25:27.231Z,10.93
2023-03-06T05:27:59.144Z,10.17
2023-03-06T05:30:27.474Z,9.73
2023-03-06T05:32:57.162Z,10.37
2023-03-06T05:35:25.482Z,11.40
2023-03-06T05:37:53.900Z,10.40
2023-03-06T05:40:22.634Z,11.33
2023-03-06T05:42:50.985Z,10.87
2023-03-06T05:45:19.764Z,11.57
2023-03-06T05:47:48.150Z,10.60
2023-03-06T05:50:18.128Z,11.43
2023-03-06T05:52:46.633Z,10.30
2023-03-06T05:55:15.610Z,11.40
2023-03-06T05:57:43.948Z,11.60
2023-03-06T06:00:14.858Z,11.20
2023-03-06T06:02:53.395Z,12.07
2023-03-06T06:05:23.518Z,11.63
2023-03-06T06:07:51.901Z,12.30
2023-03-06T06:10:20.537Z,11.07
2023-03-06T06:12:48.848Z,10.83
2023-03-06T06:15:17.572Z,12.03
2023-03-06T06:17:45.978Z,11.47
2023-03-06T06:20:17.272Z,10.93
2023-03-06T06:22:47.053Z,11.60
2023-03-06T06:25:15.456Z,11.77
2023-03-06T06:27:44.473Z,11.50
2023-03-06T06:30:13.870Z,11.40
2023-03-06T06:32:42.232Z,11.10
2023-03-06T06:35:11.042Z,11.07
2023-03-06T06:37:39.382Z,11.43
2023-03-06T06:40:10.762Z,11.37
2023-03-06T06:42:41.149Z,11.60
2023-03-06T06:45:11.362Z,11.40
2023-03-06T06:47:41.695Z,11.50
2023-03-06T06:50:15.216Z,11.40
2023-03-06T06:52:43.567Z,13.03
2023-03-06T06:55:13.931Z,14.37
2023-03-06T06:57:43.261Z,10.37
2023-03-06T07:00:14.801Z,13.90
2023-03-06T07:02:43.162Z,23.33
2023-03-06T07:05:11.917Z,17.23
2023-03-06T07:07:40.256Z,26.83
2023-03-06T07:10:13.374Z,16.47
2023-03-06T07:12:43.368Z,13.13
2023-03-06T07:15:14.427Z,11.97
2023-03-06T07:17:42.999Z,11.57
2023-03-06T07:20:12.931Z,11.40
2023-03-06T07:22:50.937Z,11.37
2023-03-06T07:25:20.888Z,11.20
2023-03-06T07:27:54.037Z,12.37
2023-03-06T07:30:26.454Z,13.13
2023-03-06T07:32:56.187Z,11.93
2023-03-06T07:35:25.953Z,12.90
2023-03-06T07:37:54.836Z,12.00
2023-03-06T07:40:24.018Z,13.57
2023-03-06T07:43:09.166Z,12.93
2023-03-06T07:45:46.915Z,12.30
2023-03-06T07:48:15.384Z,12.17
2023-03-06T07:50:43.742Z,12.33
2023-03-06T07:53:12.344Z,11.43
2023-03-06T07:55:42.405Z,13.33
2023-03-06T07:58:12.096Z,12.63
2023-03-06T08:00:40.477Z,12.20
2023-03-06T08:03:10.985Z,12.30
2023-03-06T08:05:39.705Z,15.07
2023-03-06T08:08:09.423Z,12.60
2023-03-06T08:10:37.967Z,12.97
2023-03-06T08:13:06.409Z,12.27
2023-03-06T08:15:36.229Z,12.00
2023-03-06T08:18:10.422Z,12.40
2023-03-06T08:20:38.856Z,12.43
2023-03-06T08:23:07.284Z,12.70
2023-03-06T08:25:35.692Z,13.83
2023-03-06T08:28:04.426Z,14.20
2023-03-06T08:30:32.791Z,20.20
2023-03-06T08:33:02.554Z,17.33
2023-03-06T08:35:31.022Z,14.87
2023-03-06T08:37:59.389Z,19.63
2023-03-06T08:40:30.533Z,13.00
2023-03-06T08:42:59.180Z,13.93
2023-03-06T08:45:27.698Z,13.93
2023-03-06T08:47:56.303Z,12.60
2023-03-06T08:50:26.062Z,15.20
2023-03-06T08:52:54.440Z,13.13
2023-03-06T08:55:22.838Z,13.30
2023-03-06T08:57:51.232Z,13.57
2023-03-06T09:00:20.498Z,12.53
2023-03-06T09:02:49.730Z,14.50
2023-03-06T09:05:18.389Z,12.60
2023-03-06T09:07:48.268Z,14.83
2023-03-06T09:10:20.752Z,13.70
2023-03-06T09:12:51.999Z,15.27
2023-03-06T09:15:24.232Z,12.50
2023-03-06T09:17:54.205Z,15.53
2023-03-06T09:20:23.745Z,15.63
2023-03-06T09:22:53.806Z,13.73
2023-03-06T09:25:23.307Z,12.80
2023-03-06T09:28:08.716Z,13.30
2023-03-06T09:30:41.571Z,12.20
2023-03-06T09:33:09.980Z,11.23
2023-03-06T09:35:43.827Z,12.53
2023-03-06T09:38:13.972Z,12.80
2023-03-06T09:40:55.083Z,13.27
2023-03-06T09:43:29.518Z,13.47
2023-03-06T09:45:58.340Z,13.00
2023-03-06T09:48:34.178Z,14.77
2023-03-06T09:51:05.607Z,13.80
2023-03-06T09:53:48.843Z,13.93
2023-03-06T09:56:20.469Z,13.57
2023-03-06T09:58:52.927Z,12.30
2023-03-06T10:01:25.715Z,12.23
2023-03-06T10:03:58.808Z,13.37
2023-03-06T10:06:31.986Z,13.77
2023-03-06T10:09:12.897Z,13.67
2023-03-06T10:11:49.633Z,13.10
2023-03-06T10:14:28.431Z,12.60
2023-03-06T10:16:58.525Z,13.93
2023-03-06T10:19:34.246Z,17.93
2023-03-06T10:22:07.240Z,15.83
2023-03-06T10:24:51.278Z,12.50
2023-03-06T10:27:34.383Z,12.47
2023-03-06T10:30:19.137Z,13.33
2023-03-06T10:32:55.788Z,10.43
2023-03-06T10:35:30.814Z,12.20
2023-03-06T10:38:12.513Z,10.83
2023-03-06T10:41:04.955Z,8.57
2023-03-06T10:43:36.700Z,9.93
2023-03-06T10:46:07.297Z,9.00
2023-03-06T10:48:38.501Z,9.63
2023-03-06T10:51:18.918Z,8.67
2023-03-06T10:53:53.774Z,9.17
2023-03-06T10:56:31.986Z,8.80
2023-03-06T10:59:13.073Z,7.83
2023-03-06T11:01:45.103Z,7.93
2023-03-06T11:04:28.959Z,6.50
2023-03-06T11:07:14.319Z,6.53
2023-03-06T11:09:44.191Z,6.80
2023-03-06T11:12:30.267Z,7.13
2023-03-06T11:15:21.061Z,6.73
2023-03-06T11:17:56.265Z,6.97
2023-03-06T11:20:27.032Z,7.33
2023-03-06T11:22:59.606Z,6.43
2023-03-06T11:25:34.772Z,6.50
2023-03-06T11:28:09.455Z,6.33
2023-03-06T11:30:44.730Z,6.30
2023-03-06T11:33:21.023Z,7.17
2023-03-06T11:35:58.967Z,7.00
2023-03-06T11:38:39.942Z,7.07
2023-03-06T11:41:19.880Z,6.60
2023-03-06T11:44:00.676Z,6.40
2023-03-06T11:46:36.179Z,6.40
2023-03-06T11:49:14.804Z,7.07
2023-03-06T11:51:49.339Z,7.03
2023-03-06T11:54:17.670Z,6.80
2023-03-06T11:56:55.164Z,7.63
2023-03-06T11:59:43.368Z,7.17
2023-03-06T12:02:30.371Z,6.10
2023-03-06T12:05:13.286Z,6.60
2023-03-06T12:07:51.261Z,7.37
2023-03-06T12:10:24.466Z,7.10
2023-03-06T12:13:17.576Z,7.10
2023-03-06T12:16:14.765Z,7.43
2023-03-06T12:18:59.466Z,7.67
2023-03-06T12:21:41.630Z,7.97
2023-03-06T12:24:41.866Z,7.97
2023-03-06T12:27:22.288Z,7.10
2023-03-06T12:30:05.189Z,6.87
2023-03-06T12:32:48.995Z,7.13
2023-03-06T12:35:40.295Z,8.10
2023-03-06T12:38:44.908Z,7.77
2023-03-06T12:41:25.499Z,7.70
2023-03-06T12:44:19.270Z,6.97
2023-03-06T12:46:51.284Z,7.47
2023-03-06T12:49:32.558Z,7.47
2023-03-06T12:52:03.656Z,8.33
2023-03-06T12:54:37.681Z,8.13
2023-03-06T12:57:08.610Z,7.17
2023-03-06T12:59:39.790Z,7.43
2023-03-06T13:02:50.619Z,8.00
2023-03-06T13:05:58.821Z,7.03
2023-03-06T13:08:52.848Z,7.47
2023-03-06T13:11:31.560Z,7.43
2023-03-06T13:13:59.992Z,8.03
2023-03-06T13:16:31.816Z,8.07
2023-03-06T13:19:05.229Z,7.77
2023-03-06T13:22:02.378Z,8.23
2023-03-06T13:24:33.918Z,6.90
2023-03-06T13:27:05.863Z,7.50
2023-03-06T13:29:53.453Z,7.07
2023-03-06T13:32:31.853Z,8.17
2023-03-06T13:35:00.321Z,7.43
2023-03-06T13:37:49.860Z,7.37
2023-03-06T13:40:32.640Z,8.07
2023-03-06T13:43:25.084Z,8.13
2023-03-06T13:46:24.803Z,7.67
2023-03-06T13:49:06.937Z,7.17
2023-03-06T13:51:37.344Z,7.13
2023-03-06T13:54:29.173Z,7.27
2023-03-06T13:57:36.132Z,7.07
2023-03-06T14:00:36.365Z,6.50
2023-03-06T14:03:36.122Z,7.07
2023-03-06T14:06:50.637Z,7.33
2023-03-06T14:09:33.502Z,8.77
2023-03-06T14:12:07.754Z,9.30
2023-03-06T14:14:41.243Z,10.30
2023-03-06T14:17:21.564Z,8.60
2023-03-06T14:19:50.678Z,8.83
2023-03-06T14:22:23.465Z,8.60
2023-03-06T14:25:01.901Z,8.77
2023-03-06T14:27:58.200Z,8.97
2023-03-06T14:30:28.841Z,8.83
2023-03-06T14:32:57.403Z,8.73
2023-03-06T14:35:29.605Z,9.50
2023-03-06T14:38:01.675Z,9.17
2023-03-06T14:40:35.053Z,10.83
2023-03-06T14:43:21.622Z,9.97
2023-03-06T14:45:51.541Z,9.87
2023-03-06T14:48:20.398Z,9.77
2023-03-06T14:50:51.788Z,9.87
2023-03-06T14:53:24.033Z,7.83
2023-03-06T14:55:56.122Z,9.47
2023-03-06T14:58:30.978Z,9.97
2023-03-06T15:01:04.572Z,9.37
2023-03-06T15:03:42.973Z,8.67
2023-03-06T15:06:16.836Z,9.77
2023-03-06T15:08:48.548Z,8.77
2023-03-06T15:11:18.417Z,9.40
2023-03-06T15:14:01.851Z,8.27
2023-03-06T15:16:32.392Z,8.97
2023-03-06T15:19:02.499Z,8.20
2023-03-06T15:21:36.531Z,8.43
2023-03-06T15:24:31.659Z,8.53
2023-03-06T15:27:04.177Z,8.40
2023-03-06T15:29:32.905Z,8.10
2023-03-06T15:32:15.451Z,7.67
2023-03-06T15:34:43.932Z,7.90
2023-03-06T15:37:28.080Z,9.07
2023-03-06T15:40:09.183Z,7.80
2023-03-06T15:42:39.121Z,7.83
2023-03-06T15:45:16.882Z,8.43
2023-03-06T15:47:45.880Z,7.33
2023-03-06T15:50:17.202Z,8.20
2023-03-06T15:52:46.008Z,8.37
2023-03-06T15:55:15.168Z,8.10
2023-03-06T15:57:52.413Z,8.07
2023-03-06T16:00:28.329Z,8.10
2023-03-06T16:02:57.294Z,7.90
2023-03-06T16:05:27.105Z,8.37
2023-03-06T16:07:56.365Z,8.40
2023-03-06T16:10:27.008Z,8.73
2023-03-06T16:13:00.768Z,8.77
2023-03-06T16:15:29.947Z,8.67
2023-03-06T16:17:58.794Z,9.07
2023-03-06T16:20:28.674Z,8.30
2023-03-06T16:22:57.312Z,8.37
2023-03-06T16:25:28.613Z,10.97
2023-03-06T16:27:59.593Z,8.20
2023-03-06T16:30:30.792Z,9.17
2023-03-06T16:33:04.041Z,8.90
2023-03-06T16:35:32.463Z,9.07
2023-03-06T16:38:00.974Z,9.40
2023-03-06T16:40:32.475Z,8.33
2023-03-06T16:43:02.138Z,9.50
2023-03-06T16:45:30.599Z,8.83
2023-03-06T16:48:07.125Z,8.27
2023-03-06T16:50:38.681Z,9.43
2023-03-06T16:53:08.086Z,9.07
2023-03-06T16:55:36.517Z,9.07
2023-03-06T16:58:13.790Z,8.83
2023-03-06T17:00:42.465Z,8.47
2023-03-06T17:03:10.832Z,8.90
2023-03-06T17:05:39.545Z,8.70
2023-03-06T17:08:07.882Z,9.43
2023-03-06T17:10:36.411Z,8.90
2023-03-06T17:13:05.175Z,9.70
2023-03-06T17:15:35.000Z,8.67
2023-03-06T17:18:03.391Z,9.83
2023-03-06T17:20:31.751Z,10.20
2023-03-06T17:23:00.099Z,9.77
2023-03-06T17:25:28.425Z,10.07
2023-03-06T17:27:56.785Z,8.63
2023-03-06T17:30:25.121Z,8.90
2023-03-06T17:32:54.792Z,8.57
2023-03-06T17:35:23.291Z,10.77
2023-03-06T17:37:52.455Z,9.77
2023-03-06T17:40:21.019Z,9.10
2023-03-06T17:42:50.651Z,9.27
2023-03-06T17:45:19.026Z,9.53
2023-03-06T17:47:49.053Z,11.37
2023-03-06T17:50:19.176Z,12.17
2023-03-06T17:52:47.532Z,10.50
2023-03-06T17:55:15.883Z,9.70
2023-03-06T17:57:44.216Z,9.93
2023-03-06T18:00:13.373Z,9.73
2023-03-06T18:02:45.412Z,9.17
2023-03-06T18:05:13.866Z,9.00
2023-03-06T18:07:43.905Z,9.67
2023-03-06T18:10:12.538Z,9.93
2023-03-06T18:12:41.036Z,9.67
2023-03-06T18:15:10.383Z,10.07
2023-03-06T18:17:38.876Z,8.67
2023-03-06T18:20:08.027Z,9.53
2023-03-06T18:22:36.402Z,10.20
2023-03-06T18:25:07.015Z,7.70
2023-03-06T18:27:36.023Z,7.40
2023-03-06T18:30:04.892Z,7.83
2023-03-06T18:32:33.519Z,8.00
2023-03-06T18:35:01.935Z,10.00
2023-03-06T18:37:30.298Z,11.33
2023-03-06T18:39:58.655Z,10.73
2023-03-06T18:42:28.476Z,14.30
2023-03-06T18:45:03.807Z,14.20
2023-03-06T18:47:32.220Z,12.03
2023-03-06T18:50:02.503Z,14.10
2023-03-06T18:52:30.891Z,12.10
2023-03-06T18:54:59.201Z,8.37
2023-03-06T18:57:30.422Z,8.23
2023-03-06T18:59:59.239Z,9.13
2023-03-06T19:02:27.649Z,8.57
2023-03-06T19:04:56.202Z,19.73
2023-03-06T19:07:25.286Z,14.10
2023-03-06T19:09:53.714Z,12.57
2023-03-06T19:12:22.149Z,12.93
2023-03-06T19:14:51.929Z,10.50
2023-03-06T19:17:20.425Z,11.43
2023-03-06T19:19:50.708Z,11.90
2023-03-06T19:22:19.177Z,11.03
2023-03-06T19:24:50.011Z,10.67
2023-03-06T19:27:28.258Z,10.47
2023-03-06T19:29:57.967Z,10.77
2023-03-06T19:32:26.340Z,10.27
2023-03-06T19:34:58.603Z,9.90
2023-03-06T19:37:26.997Z,9.17
2023-03-06T19:39:56.872Z,9.93
2023-03-06T19:42:25.290Z,8.70
2023-03-06T19:44:53.610Z,9.63
2023-03-06T19:47:23.496Z,9.33
2023-03-06T19:49:52.034Z,9.47
2023-03-06T19:52:20.392Z,8.53
2023-03-06T19:54:48.721Z,9.23
2023-03-06T19:57:17.295Z,9.20
2023-03-06T19:59:45.649Z,9.00
2023-03-06T20:02:16.090Z,10.37
2023-03-06T20:04:46.671Z,9.20
2023-03-06T20:07:15.017Z,9.03
2023-03-06T20:09:43.357Z,9.37
2023-03-06T20:12:11.657Z,9.03
2023-03-06T20:14:40.008Z,8.93
2023-03-06T20:17:08.809Z,9.57
2023-03-06T20:19:37.800Z,11.70
2023-03-06T20:22:07.582Z,25.57
2023-03-06T20:24:35.905Z,14.40
2023-03-06T20:27:04.524Z,9.07
2023-03-06T20:29:32.875Z,9.10
2023-03-06T20:32:01.397Z,9.60
2023-03-06T20:34:29.918Z,9.10
2023-03-06T20:36:58.281Z,11.00
2023-03-06T20:39:28.094Z,10.93
2023-03-06T20:41:56.507Z,9.73
2023-03-06T20:44:24.798Z,9.30
2023-03-06T20:46:53.741Z,10.60
2023-03-06T20:49:22.612Z,11.53
2023-03-06T20:51:51.047Z,12.30
2023-03-06T20:54:19.441Z,9.43
2023-03-06T20:56:50.758Z,10.70
2023-03-06T20:59:19.330Z,8.77
2023-03-06T21:01:48.221Z,9.53
2023-03-06T21:04:17.359Z,9.87
2023-03-06T21:06:46.973Z,9.93
2023-03-06T21:09:17.575Z,10.90
2023-03-06T21:11:46.448Z,9.60
2023-03-06T21:14:16.295Z,8.70
2023-03-06T21:16:45.563Z,9.10
2023-03-06T21:19:14.060Z,8.23
2023-03-06T21:21:42.732Z,9.70
2023-03-06T21:24:11.187Z,8.97
2023-03-06T21:26:39.544Z,9.63
2023-03-06T21:29:07.844Z,9.70
2023-03-06T21:31:37.590Z,9.33
2023-03-06T21:34:06.328Z,9.07
2023-03-06T21:36:35.146Z,18.97
2023-03-06T21:39:06.507Z,14.07
2023-03-06T21:41:35.574Z,9.17
2023-03-06T21:44:05.675Z,8.80
2023-03-06T21:46:35.280Z,7.97
2023-03-06T21:49:05.699Z,8.90
2023-03-06T21:51:34.788Z,8.83
2023-03-06T21:54:04.046Z,9.47
2023-03-06T21:56:33.530Z,9.63
2023-03-06T21:59:02.064Z,8.83
2023-03-06T22:01:31.083Z,8.97
2023-03-06T22:03:59.962Z,9.63
2023-03-06T22:06:34.992Z,9.40
2023-03-06T22:09:04.995Z,9.33
2023-03-06T22:11:37.059Z,9.67
2023-03-06T22:14:06.243Z,9.47
2023-03-06T22:16:34.734Z,9.73
2023-03-06T22:19:03.218Z,10.73
2023-03-06T22:21:32.952Z,10.70
2023-03-06T22:24:02.213Z,9.23
2023-03-06T22:26:31.601Z,10.13
2023-03-06T22:29:00.506Z,9.50
2023-03-06T22:31:29.733Z,10.30
2023-03-06T22:34:00.119Z,10.33
2023-03-06T22:36:30.227Z,9.60
2023-03-06T22:39:02.256Z,10.17
2023-03-06T22:41:31.550Z,9.33
2023-03-06T22:44:01.523Z,9.90
2023-03-06T22:46:30.840Z,8.90
2023-03-06T22:48:59.909Z,8.60
2023-03-06T22:51:29.826Z,7.70
2023-03-06T22:54:00.105Z,7.80
2023-03-06T22:56:28.581Z,8.77
2023-03-06T22:58:58.024Z,8.43
2023-03-06T23:01:28.982Z,7.70
2023-03-06T23:04:00.285Z,8.37
2023-03-06T23:06:31.804Z,9.13
2023-03-06T23:09:03.980Z,8.13
2023-03-06T23:11:32.927Z,8.60
2023-03-06T23:14:12.120Z,8.27
2023-03-06T23:16:40.851Z,8.03
2023-03-06T23:19:09.278Z,8.23
2023-03-06T23:21:37.909Z,8.20
2023-03-06T23:24:08.475Z,8.50
2023-03-06T23:26:37.108Z,8.33
2023-03-06T23:29:05.492Z,8.00
2023-03-06T23:31:33.983Z,7.30
2023-03-06T23:34:03.872Z,7.90
2023-03-06T23:36:32.178Z,7.60
2023-03-06T23:39:00.676Z,6.43
2023-03-06T23:41:30.530Z,6.73
2023-03-06T23:43:59.656Z,7.07
2023-03-06T23:46:28.131Z,7.10
2023-03-06T23:48:56.467Z,7.90
2023-03-06T23:51:25.113Z,8.17
2023-03-06T23:53:58.333Z,7.07
2023-03-06T23:56:28.358Z,7.17
2023-03-06T23:58:58.183Z,6.37
